Summit Argo, IL (60501)

06:33 PM CDT del 25 Ottobre 2014 (GMT -0500)
Garfield Ridge | Change Station
CLOSE
Current Station
Stazione meteo personale
Location: Chicago, IL
Altitudine: 604 ft
Stazioni meteo nelle vicinanze

Alt. 604 ft 41.78 °N, 87.79 °W | Updated 4 seconds ago

Sereno
Sereno
67.1 °F
Sembra 67.1 °F
N
5.4
Vento Variabile Vento da OSO
Gusts 5.4 mph

Oggi
Massima -- | Minima -- °F
--% Possibilità di precip.
Ieri
Massima -- | Minima -- °F
Precip. -- in
7:15 AM 5:54 PM
Luna crescente, 5% visible
Pressione 29.90 in
Visibilità 10.0 miglia
Nuvole Sereno
Punto di rugiada 28 °F
Umidità 23%
Piovosità 0.00 in
Spessore del manto nevoso Non disponibile.
Raggi UV 0 fuori da 12
Polline 1.60 fuori da 12
Ozono Buono
PM2.5 Buono
Flu Activity No Activity
METAR KMDW 252253Z 29010KT 10SM CLR 21/M03 A2991 RMK AO2 SLP124 T02061033

More Conditions Fewer Conditions

Pressione 29.90 in
Visibilità 10.0 miglia
Nuvole Sereno
Punto di rugiada 28 °F
Umidità 23%
Piovosità 0.00 in
Spessore del manto nevoso Non disponibile.
Raggi UV 0 fuori da 12
Polline 1.60 fuori da 12
Ozono Buono
PM2.5 Buono
Flu Activity No Activity
METAR KMDW 252253Z 29010KT 10SM CLR 21/M03 A2991 RMK AO2 SLP124 T02061033

More Conditions Fewer Conditions

10-Day Weather Forecast

Almanac

Astronomia

Oct. 25, 2014 Alba Tramonto
Ora attuale 07:15 CDT 17:54 CDT
Crepuscolo civile 06:46 CDT 18:23 CDT
Crepuscolo nautico 06:14 CDT 18:55 CDT
Crepuscolo astronomico 05:41 CDT 19:28 CDT
Luna 08:54 CDT 19:16 CDT
Estensione della luce visibile 11h 36m
Lunghezza del giorno
10h 39m
Tomorrow will be 2m 35s shorter.
Luna crescente, 5% of the Moon is Illuminated
Oggi
Luna crescente
Ott 30
Primo quarto
Nov 6
Luna piena
Nov 14
Ultimo quarto
Nov 22
Nuovo

Gli estremi di oggi

State Highs State Lows

Community

WunderPhotos

Upload Photos

1,765,034 foto caricate!

Nearby

Qualità dell'aria

  Qualità dell'aria Indice AQ Inquinante
Ieri Moderato
PM2.5
Ieri Buono
OZONE
Attuale Buono
PM2.5
Attuale Buono
OZONE
Sabato Buono
PM2.5
Domenica Buono
PM2.5
Lunedì Moderato
PM2.5
Martedì Buono
PM2.5
Mercoledì Buono
PM2.5

Profondità neve

Stazione Profondità Altitudine
Non sono state evidenziate nuove nevicate

Attività sismica

Città  Distanza Mag. Data & Ora
Non sono state riportate attività sismiche nelle vicinanze.
Minimo Magnitudo Mostrato è 2.5.

Temperature delle acque costiere

Località Temperatura
Nessun dato dalle stazioni

Stazioni meteo nelle vicinanze